< Cyclone 199906 1999 Season Cyclone 199908 >
Cyclone 199907 (DAMIEN)
General InformationTrack Information on Google MapsDetailed Wind InformationList of All Images || ResourceGoogle EarthGE AnimationAtom FeedGeoJSON
Detalied Best Track (Time Zone = UTC)
Year Month Day Hour Lat. Long. Pressure (hPa) Wind (kt) Class Image Chart
1999 1 21 07 -12.7 112.8 998 29 2 Image --
1999 1 21 10 -12.7 112.4 995 35 3 Image --
1999 1 21 13 -12.8 112.1 990 41 3 Image --
1999 1 21 16 -12.8 111.6 990 41 3 Image --
1999 1 21 19 -12.9 111.2 990 41 3 Image --
1999 1 21 22 -13.0 110.7 990 41 3 Image --
1999 1 22 01 -13.1 110.2 990 41 3 Image --
1999 1 22 04 -13.1 109.7 990 41 3 Image --
1999 1 22 07 -13.1 109.2 990 41 3 Image --
1999 1 22 10 -13.1 108.8 990 41 3 Image --
1999 1 22 13 -13.1 108.4 990 41 3 Image --
1999 1 22 16 -13.2 107.9 990 41 3 Image --
1999 1 22 19 -13.2 107.4 990 41 3 Image --
1999 1 22 22 -13.3 106.9 990 41 3 Image --
1999 1 23 01 -13.4 106.5 985 49 4 Image --
1999 1 23 04 -13.5 106.0 985 49 4 Image --
1999 1 23 07 -13.6 105.5 980 54 4 Image --
1999 1 23 10 -13.8 105.0 980 54 4 Image --
1999 1 23 13 -14.0 104.5 975 60 4 Image --
1999 1 23 16 -14.2 104.1 970 64 5 Image --
1999 1 23 19 -14.4 103.6 970 64 5 Image --
1999 1 23 22 -14.5 103.2 970 64 5 Image --
1999 1 24 01 -14.7 102.6 965 70 5 Image --
1999 1 24 04 -14.9 102.0 960 76 5 Image --
1999 1 24 07 -15.2 101.4 960 76 5 Image --
1999 1 24 10 -15.4 100.8 955 80 5 Image --
1999 1 24 13 -15.5 100.2 955 80 5 Image --
1999 1 24 16 -15.7 99.7 955 80 5 Image --
1999 1 24 19 -15.8 99.1 955 80 5 Image --
1999 1 24 22 -15.9 98.6 950 84 5 Image --
1999 1 25 01 -15.9 97.9 950 84 5 Image --
1999 1 25 04 -15.8 97.3 955 80 5 Image --
1999 1 25 07 -15.7 96.6 955 80 5 Image --
1999 1 25 10 -15.6 96.1 960 76 5 Image --
1999 1 25 13 -15.4 95.7 960 76 5 Image --
1999 1 25 16 -15.2 95.4 965 70 5 Image --
1999 1 25 19 -15.0 95.2 970 64 5 Image --
1999 1 25 22 -14.8 95.0 975 60 4 Image --
1999 1 26 01 -14.6 94.8 975 60 4 Image --
1999 1 26 04 -14.4 94.6 980 54 4 Image --
1999 1 26 07 -14.3 94.5 985 49 4 Image --
1999 1 26 10 -14.3 94.3 985 49 4 Image --
1999 1 26 13 -14.3 94.2 985 49 4 Image --
1999 1 26 16 -14.3 94.1 985 49 4 Image --
1999 1 26 19 -14.4 94.0 985 49 4 Image --
1999 1 26 22 -14.4 93.9 985 49 4 Image --
1999 1 27 01 -14.5 93.8 985 49 4 Image --
1999 1 27 04 -14.6 93.5 985 49 4 Image --
1999 1 27 07 -14.6 93.4 985 49 4 Image --
1999 1 27 10 -14.9 93.0 990 41 3 Image --
1999 1 27 13 -15.1 92.8 990 41 3 Image --
1999 1 27 16 -15.2 92.4 990 41 3 Image --
1999 1 27 19 -15.5 92.0 990 41 3 Image --
1999 1 27 22 -15.7 91.6 990 41 3 Image --
1999 1 28 01 -15.9 91.1 995 35 3 Image --
1999 1 28 04 -16.1 90.5 995 35 3 Image --
1999 1 28 07 -16.3 90.0 1000 27 2 Image --
1999 1 28 10 -16.6 89.5 1000 27 2 Image --
< Cyclone 199906 1999 Season Cyclone 199908 >

Help